Highland-University Park's Hourly Summary for Saturday, May 12, 2018
Hour Temp
(f)
RH
(%)
Solar Rad.
(MJ/m2)
Rainfall
(in)
Wind
(mph)
5/12/2018 12:00 AM 78 55 0 0 2.85
5/12/2018 1:00 AM 77 57 0 0 2.59
5/12/2018 2:00 AM 75 63 0 0 2.5
5/12/2018 3:00 AM 73 68 0 0 2.77
5/12/2018 4:00 AM 72 78 0 0 3.26
5/12/2018 5:00 AM 73 78 0 0 2.36
5/12/2018 6:00 AM 73 78 0 0 2.18
5/12/2018 7:00 AM 73 81 0.02 0 1.72
5/12/2018 8:00 AM 73 81 0.17 0 1.29
5/12/2018 9:00 AM 74 74 0.44 0 2.06
5/12/2018 10:00 AM 77 66 0.94 0 2.83
5/12/2018 11:00 AM 80 56 2.02 0 2.72
5/12/2018 12:00 PM 83 51 2.82 0 3
5/12/2018 1:00 PM 86 45 2.94 0 2.73
5/12/2018 2:00 PM 87 43 2.79 0 3.28
5/12/2018 3:00 PM 88 38 3.09 0 3.08
5/12/2018 4:00 PM 88 38 2.4 0 3.8
5/12/2018 5:00 PM 90 36 2.5 0 3.24
5/12/2018 6:00 PM 88 39 1.33 0 3.36
5/12/2018 7:00 PM 87 38 0.92 0 3.97
5/12/2018 8:00 PM 85 44 0.15 0 3.1
5/12/2018 9:00 PM 82 49 0.01 0 2.42
5/12/2018 10:00 PM 80 54 0 0 2.23
5/12/2018 11:00 PM 80 58 0 0 2.48
Data Summary 80 57 22.54 0.00 2.74